sensor_id;sensor_type;location;lat;lon;timestamp;P1;durP1;ratioP1;P2;durP2;ratioP2
75165;SDS011;63747;48.042;10.088;2023-07-31T00:02:08;3.58;;;1.80;;
75165;SDS011;63747;48.042;10.088;2023-07-31T00:05:09;3.33;;;1.70;;
75165;SDS011;63747;48.042;10.088;2023-07-31T00:08:11;3.72;;;1.70;;
75165;SDS011;63747;48.042;10.088;2023-07-31T00:11:11;4.03;;;2.05;;
75165;SDS011;63747;48.042;10.088;2023-07-31T00:14:12;2.65;;;1.75;;
75165;SDS011;63747;48.042;10.088;2023-07-31T00:17:13;3.60;;;1.80;;
75165;SDS011;63747;48.042;10.088;2023-07-31T00:20:13;3.80;;;1.90;;
75165;SDS011;63747;48.042;10.088;2023-07-31T00:23:14;3.42;;;1.85;;
75165;SDS011;63747;48.042;10.088;2023-07-31T00:26:15;3.58;;;1.65;;
75165;SDS011;63747;48.042;10.088;2023-07-31T00:29:15;3.05;;;1.75;;
75165;SDS011;63747;48.042;10.088;2023-07-31T00:32:16;5.03;;;1.80;;
75165;SDS011;63747;48.042;10.088;2023-07-31T00:35:17;3.50;;;1.95;;
75165;SDS011;63747;48.042;10.088;2023-07-31T00:38:18;5.78;;;1.70;;
75165;SDS011;63747;48.042;10.088;2023-07-31T00:41:18;4.47;;;1.95;;
75165;SDS011;63747;48.042;10.088;2023-07-31T00:44:19;3.78;;;2.00;;
75165;SDS011;63747;48.042;10.088;2023-07-31T00:47:19;6.68;;;2.00;;
75165;SDS011;63747;48.042;10.088;2023-07-31T00:50:22;3.17;;;2.00;;
75165;SDS011;63747;48.042;10.088;2023-07-31T00:53:24;4.50;;;2.08;;
75165;SDS011;63747;48.042;10.088;2023-07-31T00:56:25;3.80;;;2.10;;
75165;SDS011;63747;48.042;10.088;2023-07-31T01:02:27;3.40;;;1.70;;
75165;SDS011;63747;48.042;10.088;2023-07-31T01:05:47;3.03;;;2.22;;
75165;SDS011;63747;48.042;10.088;2023-07-31T01:09:02;3.28;;;2.00;;
75165;SDS011;63747;48.042;10.088;2023-07-31T01:12:09;3.47;;;2.00;;
75165;SDS011;63747;48.042;10.088;2023-07-31T01:15:14;4.88;;;2.13;;
75165;SDS011;63747;48.042;10.088;2023-07-31T01:18:17;4.47;;;2.20;;
75165;SDS011;63747;48.042;10.088;2023-07-31T01:21:28;7.63;;;2.38;;
75165;SDS011;63747;48.042;10.088;2023-07-31T01:27:51;4.18;;;2.63;;
75165;SDS011;63747;48.042;10.088;2023-07-31T01:31:00;3.65;;;2.00;;
75165;SDS011;63747;48.042;10.088;2023-07-31T01:34:02;3.83;;;2.45;;
75165;SDS011;63747;48.042;10.088;2023-07-31T01:37:04;4.78;;;2.30;;
75165;SDS011;63747;48.042;10.088;2023-07-31T01:40:05;4.10;;;2.15;;
75165;SDS011;63747;48.042;10.088;2023-07-31T01:43:06;5.63;;;2.40;;
75165;SDS011;63747;48.042;10.088;2023-07-31T01:46:07;4.28;;;2.10;;
75165;SDS011;63747;48.042;10.088;2023-07-31T01:49:08;2.85;;;2.20;;
75165;SDS011;63747;48.042;10.088;2023-07-31T01:52:08;4.63;;;2.30;;
75165;SDS011;63747;48.042;10.088;2023-07-31T01:55:09;4.35;;;2.30;;
75165;SDS011;63747;48.042;10.088;2023-07-31T01:58:10;3.88;;;2.38;;
75165;SDS011;63747;48.042;10.088;2023-07-31T02:01:11;5.30;;;2.50;;
75165;SDS011;63747;48.042;10.088;2023-07-31T02:04:11;5.13;;;2.70;;
75165;SDS011;63747;48.042;10.088;2023-07-31T02:07:12;5.63;;;2.60;;
75165;SDS011;63747;48.042;10.088;2023-07-31T02:10:12;2.75;;;2.17;;
75165;SDS011;63747;48.042;10.088;2023-07-31T02:13:13;3.40;;;2.40;;
75165;SDS011;63747;48.042;10.088;2023-07-31T02:16:14;2.70;;;2.28;;
75165;SDS011;63747;48.042;10.088;2023-07-31T02:19:14;4.85;;;2.70;;
75165;SDS011;63747;48.042;10.088;2023-07-31T02:22:15;4.30;;;2.40;;
75165;SDS011;63747;48.042;10.088;2023-07-31T02:25:16;5.13;;;2.60;;
75165;SDS011;63747;48.042;10.088;2023-07-31T02:28:17;3.83;;;2.85;;
75165;SDS011;63747;48.042;10.088;2023-07-31T02:31:17;3.83;;;2.63;;
75165;SDS011;63747;48.042;10.088;2023-07-31T02:34:18;4.03;;;2.88;;
75165;SDS011;63747;48.042;10.088;2023-07-31T02:37:18;5.70;;;2.78;;
75165;SDS011;63747;48.042;10.088;2023-07-31T02:40:19;3.42;;;2.50;;
75165;SDS011;63747;48.042;10.088;2023-07-31T02:43:20;3.92;;;3.10;;
75165;SDS011;63747;48.042;10.088;2023-07-31T02:46:20;4.25;;;3.20;;
75165;SDS011;63747;48.042;10.088;2023-07-31T02:49:24;4.57;;;2.90;;
75165;SDS011;63747;48.042;10.088;2023-07-31T02:52:25;3.90;;;2.90;;
75165;SDS011;63747;48.042;10.088;2023-07-31T02:55:26;5.18;;;2.88;;
75165;SDS011;63747;48.042;10.088;2023-07-31T02:58:26;6.93;;;2.85;;
75165;SDS011;63747;48.042;10.088;2023-07-31T03:01:27;7.00;;;3.65;;
75165;SDS011;63747;48.042;10.088;2023-07-31T03:04:28;5.32;;;3.50;;
75165;SDS011;63747;48.042;10.088;2023-07-31T03:07:28;4.97;;;2.90;;
75165;SDS011;63747;48.042;10.088;2023-07-31T03:10:30;4.05;;;3.30;;
75165;SDS011;63747;48.042;10.088;2023-07-31T03:13:31;4.85;;;3.08;;
75165;SDS011;63747;48.042;10.088;2023-07-31T03:16:31;4.43;;;2.72;;
75165;SDS011;63747;48.042;10.088;2023-07-31T03:19:32;3.83;;;2.70;;
75165;SDS011;63747;48.042;10.088;2023-07-31T03:22:33;6.28;;;2.28;;
75165;SDS011;63747;48.042;10.088;2023-07-31T03:25:35;4.47;;;2.30;;
75165;SDS011;63747;48.042;10.088;2023-07-31T03:28:35;3.42;;;2.17;;
75165;SDS011;63747;48.042;10.088;2023-07-31T03:31:36;4.88;;;2.50;;
75165;SDS011;63747;48.042;10.088;2023-07-31T03:34:37;3.95;;;2.28;;
75165;SDS011;63747;48.042;10.088;2023-07-31T03:40:39;4.23;;;2.40;;
75165;SDS011;63747;48.042;10.088;2023-07-31T03:43:39;8.57;;;2.75;;
75165;SDS011;63747;48.042;10.088;2023-07-31T03:46:40;4.45;;;2.50;;
75165;SDS011;63747;48.042;10.088;2023-07-31T03:49:41;7.95;;;2.90;;
75165;SDS011;63747;48.042;10.088;2023-07-31T03:52:42;5.28;;;2.58;;
75165;SDS011;63747;48.042;10.088;2023-07-31T03:55:42;3.88;;;2.58;;
75165;SDS011;63747;48.042;10.088;2023-07-31T03:58:43;4.57;;;2.60;;
75165;SDS011;63747;48.042;10.088;2023-07-31T04:01:44;5.10;;;2.90;;
75165;SDS011;63747;48.042;10.088;2023-07-31T04:04:44;3.35;;;2.45;;
75165;SDS011;63747;48.042;10.088;2023-07-31T04:07:45;5.75;;;2.53;;
75165;SDS011;63747;48.042;10.088;2023-07-31T04:10:46;4.68;;;2.60;;
75165;SDS011;63747;48.042;10.088;2023-07-31T04:13:47;4.18;;;2.35;;
75165;SDS011;63747;48.042;10.088;2023-07-31T04:16:48;4.10;;;2.65;;
75165;SDS011;63747;48.042;10.088;2023-07-31T04:19:48;4.07;;;2.30;;
75165;SDS011;63747;48.042;10.088;2023-07-31T04:22:49;5.32;;;2.40;;
75165;SDS011;63747;48.042;10.088;2023-07-31T04:25:50;5.15;;;2.33;;
75165;SDS011;63747;48.042;10.088;2023-07-31T04:28:51;4.63;;;2.40;;
75165;SDS011;63747;48.042;10.088;2023-07-31T04:31:51;4.55;;;2.70;;
75165;SDS011;63747;48.042;10.088;2023-07-31T04:34:52;3.60;;;2.17;;
75165;SDS011;63747;48.042;10.088;2023-07-31T04:37:53;4.03;;;1.90;;
75165;SDS011;63747;48.042;10.088;2023-07-31T04:40:53;3.17;;;1.92;;
75165;SDS011;63747;48.042;10.088;2023-07-31T04:43:54;5.90;;;2.13;;
75165;SDS011;63747;48.042;10.088;2023-07-31T04:46:55;3.60;;;2.10;;
75165;SDS011;63747;48.042;10.088;2023-07-31T04:49:55;5.00;;;1.85;;
75165;SDS011;63747;48.042;10.088;2023-07-31T04:52:56;3.95;;;2.28;;
75165;SDS011;63747;48.042;10.088;2023-07-31T04:55:58;2.80;;;1.92;;
75165;SDS011;63747;48.042;10.088;2023-07-31T04:58:59;2.55;;;1.67;;
75165;SDS011;63747;48.042;10.088;2023-07-31T05:01:59;4.43;;;2.25;;
75165;SDS011;63747;48.042;10.088;2023-07-31T05:05:00;3.05;;;2.00;;
75165;SDS011;63747;48.042;10.088;2023-07-31T05:08:01;4.28;;;1.85;;
75165;SDS011;63747;48.042;10.088;2023-07-31T05:11:02;4.72;;;2.08;;
75165;SDS011;63747;48.042;10.088;2023-07-31T05:17:03;6.37;;;1.90;;
75165;SDS011;63747;48.042;10.088;2023-07-31T05:20:04;2.50;;;1.65;;
75165;SDS011;63747;48.042;10.088;2023-07-31T05:23:06;5.45;;;2.00;;
75165;SDS011;63747;48.042;10.088;2023-07-31T05:26:07;3.83;;;1.95;;
75165;SDS011;63747;48.042;10.088;2023-07-31T05:29:09;3.58;;;2.22;;
75165;SDS011;63747;48.042;10.088;2023-07-31T05:32:10;2.80;;;2.03;;
75165;SDS011;63747;48.042;10.088;2023-07-31T05:35:11;4.35;;;2.03;;
75165;SDS011;63747;48.042;10.088;2023-07-31T05:38:12;4.65;;;2.10;;
75165;SDS011;63747;48.042;10.088;2023-07-31T05:41:12;4.88;;;2.05;;
75165;SDS011;63747;48.042;10.088;2023-07-31T05:44:13;6.15;;;1.90;;
75165;SDS011;63747;48.042;10.088;2023-07-31T05:47:14;4.30;;;1.85;;
75165;SDS011;63747;48.042;10.088;2023-07-31T05:50:15;5.43;;;1.65;;
75165;SDS011;63747;48.042;10.088;2023-07-31T05:53:15;4.03;;;1.67;;
75165;SDS011;63747;48.042;10.088;2023-07-31T05:56:16;3.45;;;1.88;;
75165;SDS011;63747;48.042;10.088;2023-07-31T05:59:17;3.22;;;1.75;;
75165;SDS011;63747;48.042;10.088;2023-07-31T06:02:17;5.45;;;1.88;;
75165;SDS011;63747;48.042;10.088;2023-07-31T06:05:18;6.05;;;1.92;;
75165;SDS011;63747;48.042;10.088;2023-07-31T06:08:19;5.63;;;1.80;;
75165;SDS011;63747;48.042;10.088;2023-07-31T06:11:20;5.53;;;2.05;;
75165;SDS011;63747;48.042;10.088;2023-07-31T06:17:21;3.27;;;1.60;;
75165;SDS011;63747;48.042;10.088;2023-07-31T06:20:22;3.92;;;1.55;;
75165;SDS011;63747;48.042;10.088;2023-07-31T06:23:23;3.28;;;1.30;;
75165;SDS011;63747;48.042;10.088;2023-07-31T06:26:24;4.05;;;1.70;;
75165;SDS011;63747;48.042;10.088;2023-07-31T06:29:24;4.43;;;1.85;;
75165;SDS011;63747;48.042;10.088;2023-07-31T06:32:25;3.53;;;1.30;;
75165;SDS011;63747;48.042;10.088;2023-07-31T06:35:26;4.78;;;1.90;;
75165;SDS011;63747;48.042;10.088;2023-07-31T06:38:26;3.42;;;1.70;;
75165;SDS011;63747;48.042;10.088;2023-07-31T06:41:27;4.88;;;1.55;;
75165;SDS011;63747;48.042;10.088;2023-07-31T06:44:28;3.45;;;1.33;;
75165;SDS011;63747;48.042;10.088;2023-07-31T06:47:29;3.15;;;1.48;;
75165;SDS011;63747;48.042;10.088;2023-07-31T06:50:30;5.68;;;1.33;;
75165;SDS011;63747;48.042;10.088;2023-07-31T06:53:33;2.95;;;1.38;;
75165;SDS011;63747;48.042;10.088;2023-07-31T06:56:34;4.97;;;1.50;;
75165;SDS011;63747;48.042;10.088;2023-07-31T06:59:35;3.95;;;1.40;;
75165;SDS011;63747;48.042;10.088;2023-07-31T07:05:36;6.00;;;1.43;;
75165;SDS011;63747;48.042;10.088;2023-07-31T07:08:36;4.13;;;1.55;;
75165;SDS011;63747;48.042;10.088;2023-07-31T07:14:38;2.80;;;1.30;;
75165;SDS011;63747;48.042;10.088;2023-07-31T07:17:38;4.93;;;1.40;;
75165;SDS011;63747;48.042;10.088;2023-07-31T07:20:39;5.68;;;1.50;;
75165;SDS011;63747;48.042;10.088;2023-07-31T07:26:40;5.97;;;1.37;;
75165;SDS011;63747;48.042;10.088;2023-07-31T07:32:41;3.57;;;1.40;;
75165;SDS011;63747;48.042;10.088;2023-07-31T07:35:42;3.47;;;1.38;;
75165;SDS011;63747;48.042;10.088;2023-07-31T07:38:43;3.85;;;1.50;;
75165;SDS011;63747;48.042;10.088;2023-07-31T07:44:44;5.40;;;1.80;;
75165;SDS011;63747;48.042;10.088;2023-07-31T07:47:45;3.08;;;1.40;;
75165;SDS011;63747;48.042;10.088;2023-07-31T07:50:45;4.88;;;1.60;;
75165;SDS011;63747;48.042;10.088;2023-07-31T07:56:46;5.37;;;1.50;;
75165;SDS011;63747;48.042;10.088;2023-07-31T07:59:47;3.17;;;1.38;;
75165;SDS011;63747;48.042;10.088;2023-07-31T08:05:49;4.73;;;1.50;;
75165;SDS011;63747;48.042;10.088;2023-07-31T08:11:50;3.43;;;1.67;;
75165;SDS011;63747;48.042;10.088;2023-07-31T08:17:52;5.53;;;1.60;;
75165;SDS011;63747;48.042;10.088;2023-07-31T08:23:53;5.73;;;1.70;;
75165;SDS011;63747;48.042;10.088;2023-07-31T08:29:54;2.93;;;1.30;;
75165;SDS011;63747;48.042;10.088;2023-07-31T08:35:55;5.27;;;2.03;;
75165;SDS011;63747;48.042;10.088;2023-07-31T08:41:57;3.93;;;1.30;;
75165;SDS011;63747;48.042;10.088;2023-07-31T08:44:59;3.83;;;1.63;;
75165;SDS011;63747;48.042;10.088;2023-07-31T08:48:03;2.97;;;1.33;;
75165;SDS011;63747;48.042;10.088;2023-07-31T08:54:05;3.70;;;1.83;;
75165;SDS011;63747;48.042;10.088;2023-07-31T09:00:07;5.38;;;1.70;;
75165;SDS011;63747;48.042;10.088;2023-07-31T09:03:09;4.63;;;1.33;;
75165;SDS011;63747;48.042;10.088;2023-07-31T09:06:15;4.03;;;1.70;;
75165;SDS011;63747;48.042;10.088;2023-07-31T09:09:19;2.97;;;1.42;;
75165;SDS011;63747;48.042;10.088;2023-07-31T09:12:20;4.03;;;1.50;;
75165;SDS011;63747;48.042;10.088;2023-07-31T09:15:21;3.25;;;1.50;;
75165;SDS011;63747;48.042;10.088;2023-07-31T09:18:23;4.30;;;1.50;;
75165;SDS011;63747;48.042;10.088;2023-07-31T09:21:24;3.28;;;1.60;;
75165;SDS011;63747;48.042;10.088;2023-07-31T09:24:31;4.05;;;1.77;;
75165;SDS011;63747;48.042;10.088;2023-07-31T09:27:45;4.28;;;1.80;;
75165;SDS011;63747;48.042;10.088;2023-07-31T09:30:51;5.28;;;1.73;;
75165;SDS011;63747;48.042;10.088;2023-07-31T09:33:55;6.03;;;1.75;;
75165;SDS011;63747;48.042;10.088;2023-07-31T09:37:01;3.85;;;1.50;;
75165;SDS011;63747;48.042;10.088;2023-07-31T09:40:02;3.35;;;1.60;;
75165;SDS011;63747;48.042;10.088;2023-07-31T09:43:04;3.95;;;1.80;;
75165;SDS011;63747;48.042;10.088;2023-07-31T09:46:12;4.72;;;1.80;;
75165;SDS011;63747;48.042;10.088;2023-07-31T09:49:14;6.50;;;2.10;;
75165;SDS011;63747;48.042;10.088;2023-07-31T09:52:15;3.65;;;1.65;;
75165;SDS011;63747;48.042;10.088;2023-07-31T09:55:15;4.57;;;1.67;;
75165;SDS011;63747;48.042;10.088;2023-07-31T09:58:16;5.72;;;1.90;;
75165;SDS011;63747;48.042;10.088;2023-07-31T10:01:18;3.95;;;1.65;;
75165;SDS011;63747;48.042;10.088;2023-07-31T10:04:18;5.50;;;1.88;;
75165;SDS011;63747;48.042;10.088;2023-07-31T10:07:25;3.85;;;1.83;;
75165;SDS011;63747;48.042;10.088;2023-07-31T10:10:30;2.90;;;1.80;;
75165;SDS011;63747;48.042;10.088;2023-07-31T10:13:31;5.22;;;1.60;;
75165;SDS011;63747;48.042;10.088;2023-07-31T10:16:32;2.75;;;1.60;;
75165;SDS011;63747;48.042;10.088;2023-07-31T10:19:35;2.90;;;1.40;;
75165;SDS011;63747;48.042;10.088;2023-07-31T10:22:36;3.65;;;1.80;;
75165;SDS011;63747;48.042;10.088;2023-07-31T10:25:38;4.03;;;1.60;;
75165;SDS011;63747;48.042;10.088;2023-07-31T10:28:40;3.50;;;1.52;;
75165;SDS011;63747;48.042;10.088;2023-07-31T10:31:42;4.40;;;1.73;;
75165;SDS011;63747;48.042;10.088;2023-07-31T10:34:43;2.55;;;1.40;;
75165;SDS011;63747;48.042;10.088;2023-07-31T10:37:44;3.67;;;2.10;;
75165;SDS011;63747;48.042;10.088;2023-07-31T10:40:45;3.40;;;1.52;;
75165;SDS011;63747;48.042;10.088;2023-07-31T10:43:46;4.13;;;1.92;;
75165;SDS011;63747;48.042;10.088;2023-07-31T10:46:47;3.83;;;1.33;;
75165;SDS011;63747;48.042;10.088;2023-07-31T10:49:48;3.38;;;1.67;;
75165;SDS011;63747;48.042;10.088;2023-07-31T10:52:50;3.47;;;1.65;;
75165;SDS011;63747;48.042;10.088;2023-07-31T10:55:52;6.32;;;1.60;;
75165;SDS011;63747;48.042;10.088;2023-07-31T10:59:00;3.42;;;1.63;;
75165;SDS011;63747;48.042;10.088;2023-07-31T11:02:02;2.83;;;1.60;;
75165;SDS011;63747;48.042;10.088;2023-07-31T11:05:07;5.30;;;1.77;;
75165;SDS011;63747;48.042;10.088;2023-07-31T11:08:11;10.93;;;2.38;;
75165;SDS011;63747;48.042;10.088;2023-07-31T11:11:19;9.48;;;2.20;;
75165;SDS011;63747;48.042;10.088;2023-07-31T11:14:21;2.67;;;1.40;;
75165;SDS011;63747;48.042;10.088;2023-07-31T11:17:24;3.00;;;1.50;;
75165;SDS011;63747;48.042;10.088;2023-07-31T11:20:26;3.65;;;1.70;;
75165;SDS011;63747;48.042;10.088;2023-07-31T11:23:27;12.27;;;2.00;;
75165;SDS011;63747;48.042;10.088;2023-07-31T11:26:28;4.60;;;1.80;;
75165;SDS011;63747;48.042;10.088;2023-07-31T11:29:30;4.57;;;1.70;;
75165;SDS011;63747;48.042;10.088;2023-07-31T11:32:31;4.38;;;1.75;;
75165;SDS011;63747;48.042;10.088;2023-07-31T11:35:32;5.28;;;1.77;;
75165;SDS011;63747;48.042;10.088;2023-07-31T11:38:36;3.60;;;1.70;;
75165;SDS011;63747;48.042;10.088;2023-07-31T11:41:40;2.97;;;1.52;;
75165;SDS011;63747;48.042;10.088;2023-07-31T11:44:41;3.92;;;1.63;;
75165;SDS011;63747;48.042;10.088;2023-07-31T11:47:47;2.67;;;1.50;;
75165;SDS011;63747;48.042;10.088;2023-07-31T11:50:49;4.80;;;1.70;;
75165;SDS011;63747;48.042;10.088;2023-07-31T11:53:54;3.90;;;1.58;;
75165;SDS011;63747;48.042;10.088;2023-07-31T11:56:58;5.50;;;1.70;;
75165;SDS011;63747;48.042;10.088;2023-07-31T12:00:01;16.58;;;2.03;;
75165;SDS011;63747;48.042;10.088;2023-07-31T12:03:03;11.38;;;2.20;;
75165;SDS011;63747;48.042;10.088;2023-07-31T12:06:03;3.15;;;1.60;;
75165;SDS011;63747;48.042;10.088;2023-07-31T12:09:04;3.33;;;1.42;;
75165;SDS011;63747;48.042;10.088;2023-07-31T12:12:09;6.60;;;1.60;;
75165;SDS011;63747;48.042;10.088;2023-07-31T12:15:15;3.38;;;2.00;;
75165;SDS011;63747;48.042;10.088;2023-07-31T12:18:18;4.60;;;1.90;;
75165;SDS011;63747;48.042;10.088;2023-07-31T12:21:20;3.40;;;1.65;;
75165;SDS011;63747;48.042;10.088;2023-07-31T12:24:21;3.30;;;1.80;;
75165;SDS011;63747;48.042;10.088;2023-07-31T12:27:22;2.83;;;1.50;;
75165;SDS011;63747;48.042;10.088;2023-07-31T12:30:34;3.40;;;1.80;;
75165;SDS011;63747;48.042;10.088;2023-07-31T12:33:36;3.05;;;1.75;;
75165;SDS011;63747;48.042;10.088;2023-07-31T12:36:38;3.45;;;1.58;;
75165;SDS011;63747;48.042;10.088;2023-07-31T12:39:39;4.10;;;1.75;;
75165;SDS011;63747;48.042;10.088;2023-07-31T12:42:41;2.42;;;1.60;;
75165;SDS011;63747;48.042;10.088;2023-07-31T12:45:42;3.50;;;1.70;;
75165;SDS011;63747;48.042;10.088;2023-07-31T12:48:42;2.28;;;1.45;;
75165;SDS011;63747;48.042;10.088;2023-07-31T12:51:43;3.47;;;1.40;;
75165;SDS011;63747;48.042;10.088;2023-07-31T12:54:44;2.03;;;1.40;;
75165;SDS011;63747;48.042;10.088;2023-07-31T12:57:45;2.95;;;1.70;;
75165;SDS011;63747;48.042;10.088;2023-07-31T13:00:45;3.58;;;1.75;;
75165;SDS011;63747;48.042;10.088;2023-07-31T13:03:46;3.85;;;1.67;;
75165;SDS011;63747;48.042;10.088;2023-07-31T13:06:47;5.45;;;1.70;;
75165;SDS011;63747;48.042;10.088;2023-07-31T13:09:48;2.97;;;1.63;;
75165;SDS011;63747;48.042;10.088;2023-07-31T13:12:49;3.40;;;1.67;;
75165;SDS011;63747;48.042;10.088;2023-07-31T13:15:50;3.47;;;2.08;;
75165;SDS011;63747;48.042;10.088;2023-07-31T13:18:50;3.88;;;1.55;;
75165;SDS011;63747;48.042;10.088;2023-07-31T13:21:53;2.45;;;1.60;;
75165;SDS011;63747;48.042;10.088;2023-07-31T13:24:54;3.53;;;1.70;;
75165;SDS011;63747;48.042;10.088;2023-07-31T13:27:54;2.92;;;1.90;;
75165;SDS011;63747;48.042;10.088;2023-07-31T13:30:55;3.65;;;1.77;;
75165;SDS011;63747;48.042;10.088;2023-07-31T13:33:56;4.68;;;1.67;;
75165;SDS011;63747;48.042;10.088;2023-07-31T13:36:57;2.60;;;1.60;;
75165;SDS011;63747;48.042;10.088;2023-07-31T13:39:58;4.13;;;2.50;;
75165;SDS011;63747;48.042;10.088;2023-07-31T13:42:59;3.63;;;2.08;;
75165;SDS011;63747;48.042;10.088;2023-07-31T13:45:59;3.78;;;1.98;;
75165;SDS011;63747;48.042;10.088;2023-07-31T13:49:06;2.85;;;1.77;;
75165;SDS011;63747;48.042;10.088;2023-07-31T13:52:07;3.92;;;1.90;;
75165;SDS011;63747;48.042;10.088;2023-07-31T13:55:07;4.82;;;1.90;;
75165;SDS011;63747;48.042;10.088;2023-07-31T13:58:08;3.53;;;1.80;;
75165;SDS011;63747;48.042;10.088;2023-07-31T14:01:09;4.30;;;2.05;;
75165;SDS011;63747;48.042;10.088;2023-07-31T14:04:09;3.65;;;1.95;;
75165;SDS011;63747;48.042;10.088;2023-07-31T14:07:10;4.07;;;2.00;;
75165;SDS011;63747;48.042;10.088;2023-07-31T14:10:11;3.67;;;2.00;;
75165;SDS011;63747;48.042;10.088;2023-07-31T14:13:12;4.43;;;1.63;;
75165;SDS011;63747;48.042;10.088;2023-07-31T14:16:12;3.22;;;1.80;;
75165;SDS011;63747;48.042;10.088;2023-07-31T14:19:13;5.10;;;1.90;;
75165;SDS011;63747;48.042;10.088;2023-07-31T14:22:14;4.20;;;1.92;;
75165;SDS011;63747;48.042;10.088;2023-07-31T14:25:15;3.85;;;1.70;;
75165;SDS011;63747;48.042;10.088;2023-07-31T14:28:15;3.95;;;1.67;;
75165;SDS011;63747;48.042;10.088;2023-07-31T14:31:16;5.20;;;2.22;;
75165;SDS011;63747;48.042;10.088;2023-07-31T14:34:17;3.05;;;1.90;;
75165;SDS011;63747;48.042;10.088;2023-07-31T14:37:17;3.15;;;1.73;;
75165;SDS011;63747;48.042;10.088;2023-07-31T14:40:18;4.78;;;1.90;;
75165;SDS011;63747;48.042;10.088;2023-07-31T14:43:19;4.18;;;1.90;;
75165;SDS011;63747;48.042;10.088;2023-07-31T14:46:19;4.15;;;2.03;;
75165;SDS011;63747;48.042;10.088;2023-07-31T14:49:20;5.20;;;2.17;;
75165;SDS011;63747;48.042;10.088;2023-07-31T14:52:21;3.70;;;2.10;;
75165;SDS011;63747;48.042;10.088;2023-07-31T14:55:22;4.90;;;2.00;;
75165;SDS011;63747;48.042;10.088;2023-07-31T14:58:23;2.90;;;1.92;;
75165;SDS011;63747;48.042;10.088;2023-07-31T15:01:24;4.03;;;1.95;;
75165;SDS011;63747;48.042;10.088;2023-07-31T15:04:24;3.55;;;1.98;;
75165;SDS011;63747;48.042;10.088;2023-07-31T15:07:25;4.05;;;1.77;;
75165;SDS011;63747;48.042;10.088;2023-07-31T15:10:26;2.83;;;2.00;;
75165;SDS011;63747;48.042;10.088;2023-07-31T15:13:26;3.38;;;1.83;;
75165;SDS011;63747;48.042;10.088;2023-07-31T15:16:27;2.88;;;1.80;;
75165;SDS011;63747;48.042;10.088;2023-07-31T15:19:30;3.67;;;2.13;;
75165;SDS011;63747;48.042;10.088;2023-07-31T15:22:34;3.60;;;2.00;;
75165;SDS011;63747;48.042;10.088;2023-07-31T15:25:35;4.50;;;1.85;;
75165;SDS011;63747;48.042;10.088;2023-07-31T15:28:36;3.50;;;2.00;;
75165;SDS011;63747;48.042;10.088;2023-07-31T15:31:40;5.18;;;2.78;;
75165;SDS011;63747;48.042;10.088;2023-07-31T15:34:41;6.63;;;2.00;;
75165;SDS011;63747;48.042;10.088;2023-07-31T15:37:42;4.53;;;2.13;;
75165;SDS011;63747;48.042;10.088;2023-07-31T15:40:43;4.38;;;2.08;;
75165;SDS011;63747;48.042;10.088;2023-07-31T15:43:43;3.65;;;2.13;;
75165;SDS011;63747;48.042;10.088;2023-07-31T15:46:44;5.93;;;2.30;;
75165;SDS011;63747;48.042;10.088;2023-07-31T15:49:45;3.55;;;1.90;;
75165;SDS011;63747;48.042;10.088;2023-07-31T15:52:45;2.55;;;1.98;;
75165;SDS011;63747;48.042;10.088;2023-07-31T15:55:46;5.32;;;1.77;;
75165;SDS011;63747;48.042;10.088;2023-07-31T15:58:47;3.22;;;1.77;;
75165;SDS011;63747;48.042;10.088;2023-07-31T16:01:47;5.35;;;2.60;;
75165;SDS011;63747;48.042;10.088;2023-07-31T16:04:48;4.97;;;1.90;;
75165;SDS011;63747;48.042;10.088;2023-07-31T16:07:49;3.13;;;2.00;;
75165;SDS011;63747;48.042;10.088;2023-07-31T16:10:49;5.18;;;2.00;;
75165;SDS011;63747;48.042;10.088;2023-07-31T16:13:50;4.28;;;2.25;;
75165;SDS011;63747;48.042;10.088;2023-07-31T16:16:51;4.47;;;2.00;;
75165;SDS011;63747;48.042;10.088;2023-07-31T16:19:52;4.22;;;1.90;;
75165;SDS011;63747;48.042;10.088;2023-07-31T16:22:53;3.85;;;2.28;;
75165;SDS011;63747;48.042;10.088;2023-07-31T16:25:54;3.40;;;2.15;;
75165;SDS011;63747;48.042;10.088;2023-07-31T16:28:55;3.20;;;2.35;;
75165;SDS011;63747;48.042;10.088;2023-07-31T16:31:56;4.57;;;2.30;;
75165;SDS011;63747;48.042;10.088;2023-07-31T16:34:56;4.60;;;2.28;;
75165;SDS011;63747;48.042;10.088;2023-07-31T16:37:57;3.85;;;2.10;;
75165;SDS011;63747;48.042;10.088;2023-07-31T16:40:58;4.55;;;2.30;;
75165;SDS011;63747;48.042;10.088;2023-07-31T16:43:59;4.13;;;2.20;;
75165;SDS011;63747;48.042;10.088;2023-07-31T16:46:59;3.03;;;2.10;;
75165;SDS011;63747;48.042;10.088;2023-07-31T16:50:00;2.92;;;1.95;;
75165;SDS011;63747;48.042;10.088;2023-07-31T16:53:01;2.67;;;1.80;;
75165;SDS011;63747;48.042;10.088;2023-07-31T16:56:01;4.15;;;2.20;;
75165;SDS011;63747;48.042;10.088;2023-07-31T16:59:02;5.30;;;2.40;;
75165;SDS011;63747;48.042;10.088;2023-07-31T17:02:03;3.95;;;2.40;;
75165;SDS011;63747;48.042;10.088;2023-07-31T17:05:04;3.65;;;2.05;;
75165;SDS011;63747;48.042;10.088;2023-07-31T17:08:07;4.53;;;2.70;;
75165;SDS011;63747;48.042;10.088;2023-07-31T17:11:07;4.45;;;2.80;;
75165;SDS011;63747;48.042;10.088;2023-07-31T17:14:08;3.97;;;2.75;;
75165;SDS011;63747;48.042;10.088;2023-07-31T17:17:08;7.78;;;5.47;;
75165;SDS011;63747;48.042;10.088;2023-07-31T17:20:09;6.57;;;3.00;;
75165;SDS011;63747;48.042;10.088;2023-07-31T17:23:10;8.05;;;2.85;;
75165;SDS011;63747;48.042;10.088;2023-07-31T17:26:12;7.07;;;2.78;;
75165;SDS011;63747;48.042;10.088;2023-07-31T17:29:14;5.18;;;3.25;;
75165;SDS011;63747;48.042;10.088;2023-07-31T17:32:18;6.15;;;3.35;;
75165;SDS011;63747;48.042;10.088;2023-07-31T17:35:20;6.80;;;4.00;;
75165;SDS011;63747;48.042;10.088;2023-07-31T17:38:21;9.85;;;5.00;;
75165;SDS011;63747;48.042;10.088;2023-07-31T17:41:21;9.40;;;4.93;;
75165;SDS011;63747;48.042;10.088;2023-07-31T17:44:24;6.60;;;4.75;;
75165;SDS011;63747;48.042;10.088;2023-07-31T17:47:24;6.90;;;4.38;;
75165;SDS011;63747;48.042;10.088;2023-07-31T17:50:25;9.07;;;5.30;;
75165;SDS011;63747;48.042;10.088;2023-07-31T17:53:26;9.77;;;8.80;;
75165;SDS011;63747;48.042;10.088;2023-07-31T17:56:27;8.07;;;5.65;;
75165;SDS011;63747;48.042;10.088;2023-07-31T17:59:28;5.75;;;2.88;;
75165;SDS011;63747;48.042;10.088;2023-07-31T18:02:29;4.47;;;3.75;;
75165;SDS011;63747;48.042;10.088;2023-07-31T18:05:29;4.80;;;3.78;;
75165;SDS011;63747;48.042;10.088;2023-07-31T18:08:30;6.57;;;3.80;;
75165;SDS011;63747;48.042;10.088;2023-07-31T18:11:31;4.68;;;4.18;;
75165;SDS011;63747;48.042;10.088;2023-07-31T18:14:32;3.50;;;2.60;;
75165;SDS011;63747;48.042;10.088;2023-07-31T18:17:34;6.68;;;3.00;;
75165;SDS011;63747;48.042;10.088;2023-07-31T18:20:35;8.05;;;3.22;;
75165;SDS011;63747;48.042;10.088;2023-07-31T18:23:36;9.13;;;2.90;;
75165;SDS011;63747;48.042;10.088;2023-07-31T18:26:37;5.65;;;2.80;;
75165;SDS011;63747;48.042;10.088;2023-07-31T18:29:37;4.43;;;2.67;;
75165;SDS011;63747;48.042;10.088;2023-07-31T18:32:38;4.57;;;2.55;;
75165;SDS011;63747;48.042;10.088;2023-07-31T18:35:39;4.95;;;2.63;;
75165;SDS011;63747;48.042;10.088;2023-07-31T18:38:39;5.65;;;2.95;;
75165;SDS011;63747;48.042;10.088;2023-07-31T18:41:40;5.03;;;2.38;;
75165;SDS011;63747;48.042;10.088;2023-07-31T18:44:41;3.85;;;2.38;;
75165;SDS011;63747;48.042;10.088;2023-07-31T18:47:42;4.25;;;2.78;;
75165;SDS011;63747;48.042;10.088;2023-07-31T18:50:43;4.80;;;2.50;;
75165;SDS011;63747;48.042;10.088;2023-07-31T18:53:44;6.88;;;2.60;;
75165;SDS011;63747;48.042;10.088;2023-07-31T18:56:44;4.45;;;2.40;;